Time;durP1;ratioP1;P1;durP2;ratioP2;P2;SDS_P1;SDS_P2;PMS_P1;PMS_P2;Temp;Humidity;BMP_temperature;BMP_pressure;BME280_temperature;BME280_humidity;BME280_pressure;Samples;Min_cycle;Max_cycle;Signal;HPM_P1;HPM_P2
2021/04/20 00:01:39;;;;;;;49.22;32.67;;;5.30;1.00;;;;;;5012117;28;20022;-72
2021/04/20 00:04:05;;;;;;;48.85;32.55;;;5.30;1.00;;;;;;5016690;28;20032;-72
2021/04/20 00:06:32;;;;;;;46.20;31.02;;;5.30;1.00;;;;;;5017424;28;20064;-72
2021/04/20 00:08:57;;;;;;;49.45;33.10;;;5.20;1.00;;;;;;5017785;28;20057;-73
2021/04/20 00:11:23;;;;;;;47.17;31.38;;;5.20;1.00;;;;;;5002824;28;20481;-72
2021/04/20 00:13:48;;;;;;;55.70;33.72;;;5.20;1.00;;;;;;4997836;28;20057;-72
2021/04/20 00:16:14;;;;;;;49.58;31.77;;;5.20;1.00;;;;;;5001182;28;20021;-72
2021/04/20 00:18:40;;;;;;;44.00;30.00;;;5.20;1.00;;;;;;5017678;28;20484;-73
2021/04/20 00:21:05;;;;;;;49.75;32.47;;;5.20;1.00;;;;;;5017740;28;20038;-74
2021/04/20 00:23:31;;;;;;;51.83;32.17;;;5.10;1.00;;;;;;5017909;28;20757;-72
2021/04/20 00:25:56;;;;;;;49.85;30.70;;;5.10;1.00;;;;;;5032234;28;20041;-72
2021/04/20 00:28:23;;;;;;;46.85;29.17;;;5.10;1.00;;;;;;5026121;28;20147;-72
2021/04/20 00:30:50;;;;;;;51.30;34.13;;;5.00;1.00;;;;;;5023856;28;20037;-72
2021/04/20 00:33:15;;;;;;;46.08;32.28;;;5.00;1.00;;;;;;5019823;28;20513;-72
2021/04/20 00:35:41;;;;;;;49.08;32.92;;;5.00;1.00;;;;;;5011945;28;20026;-72
2021/04/20 00:38:06;;;;;;;50.05;32.90;;;5.00;1.00;;;;;;5003152;28;20011;-72
2021/04/20 00:40:32;;;;;;;50.25;31.50;;;5.00;1.00;;;;;;5021626;28;20093;-71
2021/04/20 00:42:58;;;;;;;47.50;30.73;;;5.00;1.00;;;;;;5029254;28;20049;-72
2021/04/20 00:45:26;;;;;;;47.15;31.23;;;4.90;1.00;;;;;;5027173;28;20287;-72
2021/04/20 00:47:52;;;;;;;49.40;32.20;;;4.90;1.00;;;;;;5016434;28;20025;-73
2021/04/20 00:50:20;;;;;;;48.13;31.75;;;4.90;1.00;;;;;;5015296;28;20109;-73
2021/04/20 00:52:46;;;;;;;48.90;32.05;;;4.80;1.00;;;;;;5009526;28;20425;-73
2021/04/20 00:55:12;;;;;;;48.15;31.30;;;4.90;1.00;;;;;;5000132;28;20061;-73
2021/04/20 00:57:38;;;;;;;50.65;33.75;;;4.80;1.00;;;;;;4997057;28;20504;-71
2021/04/20 01:00:13;;;;;;;51.33;32.95;;;4.80;1.00;;;;;;5006050;28;20408;-73
2021/04/20 01:02:39;;;;;;;53.50;33.08;;;4.80;1.00;;;;;;5013660;28;20034;-73
2021/04/20 01:05:13;;;;;;;52.78;33.40;;;4.70;1.00;;;;;;5015718;28;20048;-74
2021/04/20 01:07:41;;;;;;;52.20;33.10;;;4.70;1.00;;;;;;5007127;28;20497;-71
2021/04/20 01:10:08;;;;;;;49.63;32.95;;;4.70;1.00;;;;;;5009333;28;20042;-72
2021/04/20 01:12:36;;;;;;;44.88;31.42;;;4.70;1.00;;;;;;5011687;28;20057;-72
2021/04/20 01:15:03;;;;;;;55.30;31.13;;;4.80;1.00;;;;;;5009292;28;20200;-72
2021/04/20 01:17:29;;;;;;;50.30;31.58;;;5.00;1.00;;;;;;5007867;28;20022;-73
2021/04/20 01:19:58;;;;;;;46.58;29.92;;;5.10;1.00;;;;;;5002010;28;20033;-74
2021/04/20 01:22:25;;;;;;;44.80;28.35;;;5.10;1.00;;;;;;5014300;28;20091;-72
2021/04/20 01:24:51;;;;;;;44.38;28.20;;;5.10;1.00;;;;;;5006773;28;20022;-72
2021/04/20 01:27:17;;;;;;;47.58;30.17;;;5.00;1.00;;;;;;5006376;28;20029;-72
2021/04/20 01:29:43;;;;;;;48.50;31.67;;;4.90;1.00;;;;;;5012637;28;20030;-71
2021/04/20 01:32:09;;;;;;;45.35;29.90;;;4.80;1.00;;;;;;5011517;28;20026;-72
2021/04/20 01:34:34;;;;;;;48.97;30.02;;;4.70;1.00;;;;;;4999521;28;20072;-72
2021/04/20 01:37:00;;;;;;;43.30;30.10;;;4.70;1.00;;;;;;5010268;28;20023;-72
2021/04/20 01:39:25;;;;;;;46.55;31.30;;;4.70;1.00;;;;;;5011582;28;20086;-72
2021/04/20 01:41:51;;;;;;;49.00;31.73;;;4.60;1.00;;;;;;5008747;28;20505;-71
2021/04/20 01:44:17;;;;;;;48.33;32.25;;;4.60;1.00;;;;;;5016204;28;20092;-71
2021/04/20 01:46:43;;;;;;;44.83;29.83;;;4.60;1.00;;;;;;5016063;28;20029;-72
2021/04/20 01:49:09;;;;;;;47.95;31.92;;;4.50;1.00;;;;;;5014371;28;20034;-72
2021/04/20 01:51:35;;;;;;;44.00;31.35;;;4.50;1.00;;;;;;5012497;28;20113;-72
2021/04/20 01:54:01;;;;;;;51.65;33.38;;;4.40;1.00;;;;;;5007827;28;20029;-72
2021/04/20 01:56:29;;;;;;;45.42;29.65;;;4.40;1.00;;;;;;5009291;28;20397;-72
2021/04/20 01:58:55;;;;;;;47.53;32.20;;;4.40;1.00;;;;;;5018431;28;20122;-73
2021/04/20 02:01:26;;;;;;;50.30;32.40;;;4.40;1.00;;;;;;5003076;28;20049;-71
2021/04/20 02:03:52;;;;;;;46.17;30.27;;;4.40;1.00;;;;;;5011894;28;20084;-74
2021/04/20 02:06:19;;;;;;;45.78;30.52;;;4.40;1.00;;;;;;5016450;28;20038;-73
2021/04/20 02:08:47;;;;;;;48.97;30.75;;;4.40;1.00;;;;;;5008126;28;20030;-72
2021/04/20 02:11:15;;;;;;;41.47;29.00;;;4.30;1.00;;;;;;5009224;28;20057;-73
2021/04/20 02:13:41;;;;;;;46.67;30.88;;;4.40;1.00;;;;;;5018636;28;20046;-71
2021/04/20 02:16:08;;;;;;;41.65;29.05;;;4.40;1.00;;;;;;5017090;28;20061;-72
2021/04/20 02:18:40;;;;;;;44.65;29.52;;;4.40;1.00;;;;;;5017866;28;20416;-72
2021/04/20 02:21:07;;;;;;;40.13;28.95;;;4.40;1.00;;;;;;5012192;28;20033;-72
2021/04/20 02:23:34;;;;;;;43.70;29.30;;;4.40;1.00;;;;;;5019455;28;20057;-72
2021/04/20 02:26:05;;;;;;;42.78;29.63;;;4.40;1.00;;;;;;5029830;28;20484;-72
2021/04/20 02:28:32;;;;;;;45.70;27.70;;;4.40;1.00;;;;;;5010375;28;20124;-72
2021/04/20 02:31:00;;;;;;;43.92;29.13;;;4.40;1.00;;;;;;5007135;28;20288;-72
2021/04/20 02:33:26;;;;;;;42.17;29.63;;;4.40;1.00;;;;;;5009379;28;20028;-73
2021/04/20 02:35:54;;;;;;;50.53;30.40;;;4.40;1.00;;;;;;5012980;28;20023;-72
2021/04/20 02:38:20;;;;;;;49.53;30.52;;;4.40;1.00;;;;;;5013539;28;20026;-71
2021/04/20 02:40:46;;;;;;;47.08;29.38;;;4.30;1.00;;;;;;5013077;28;20151;-74
2021/04/20 02:43:12;;;;;;;42.05;29.83;;;4.30;1.00;;;;;;5015734;28;20026;-72
2021/04/20 02:45:38;;;;;;;44.15;28.08;;;4.30;1.00;;;;;;5009646;28;20027;-71
2021/04/20 02:48:05;;;;;;;35.67;25.77;;;4.30;1.00;;;;;;5018788;28;20022;-72
2021/04/20 02:50:32;;;;;;;38.97;27.70;;;4.30;1.00;;;;;;5008953;28;20110;-72
2021/04/20 02:53:00;;;;;;;41.65;29.98;;;4.20;1.00;;;;;;5010663;28;20054;-71
2021/04/20 02:55:26;;;;;;;42.63;29.35;;;4.20;1.00;;;;;;5009112;28;20030;-72
2021/04/20 02:57:57;;;;;;;45.92;30.00;;;4.20;1.00;;;;;;5010511;28;20108;-71
2021/04/20 03:00:24;;;;;;;43.35;29.00;;;4.20;1.00;;;;;;5011886;28;20085;-71
2021/04/20 03:02:54;;;;;;;46.22;30.30;;;4.20;1.00;;;;;;5018879;28;20527;-71
2021/04/20 03:05:21;;;;;;;42.47;29.27;;;4.20;1.00;;;;;;5019212;28;20038;-71
2021/04/20 03:07:48;;;;;;;42.78;28.92;;;4.30;1.00;;;;;;5011465;28;20054;-72
2021/04/20 03:10:16;;;;;;;44.53;28.85;;;4.30;1.00;;;;;;5011611;28;20032;-70
2021/04/20 03:12:42;;;;;;;46.58;30.02;;;4.30;1.00;;;;;;5016330;28;20460;-72
2021/04/20 03:15:11;;;;;;;38.13;27.30;;;4.50;1.00;;;;;;5023444;28;20017;-72
2021/04/20 03:17:39;;;;;;;40.92;27.88;;;4.70;1.00;;;;;;5031046;28;20061;-72
2021/04/20 03:20:09;;;;;;;43.42;27.85;;;4.70;1.00;;;;;;5012536;28;20033;-71
2021/04/20 03:22:35;;;;;;;41.28;28.05;;;4.70;1.00;;;;;;5009164;28;20041;-72
2021/04/20 03:25:07;;;;;;;40.63;27.70;;;4.70;1.00;;;;;;5019141;28;20022;-71
2021/04/20 03:27:34;;;;;;;41.85;28.00;;;4.60;1.00;;;;;;5020442;28;20022;-71
2021/04/20 03:30:00;;;;;;;43.35;28.25;;;4.50;1.00;;;;;;5023206;28;20026;-71
2021/04/20 03:32:26;;;;;;;37.85;27.83;;;4.50;1.00;;;;;;5024615;28;20028;-72
2021/04/20 03:35:01;;;;;;;43.00;28.80;;;4.50;1.00;;;;;;5010836;28;20018;-72
2021/04/20 03:37:34;;;;;;;41.95;27.35;;;4.50;1.00;;;;;;5003081;28;20034;-72
2021/04/20 03:40:01;;;;;;;42.17;27.95;;;4.50;1.00;;;;;;5009129;28;20026;-72
2021/04/20 03:42:33;;;;;;;41.95;28.65;;;4.50;1.00;;;;;;5012119;28;20026;-72
2021/04/20 03:45:06;;;;;;;42.65;27.55;;;4.60;1.00;;;;;;5005631;28;20026;-72
2021/04/20 03:47:36;;;;;;;44.63;28.27;;;4.60;1.00;;;;;;5014286;28;20026;-72
2021/04/20 03:50:04;;;;;;;39.53;26.92;;;4.60;1.00;;;;;;5032283;28;20041;-71
2021/04/20 03:52:39;;;;;;;39.00;27.60;;;4.70;1.00;;;;;;5024243;28;20030;-72
2021/04/20 03:55:08;;;;;;;46.67;25.88;;;4.80;1.00;;;;;;5031335;28;20385;-73
2021/04/20 03:57:35;;;;;;;36.53;26.25;;;5.00;1.00;;;;;;5030960;28;20160;-71
2021/04/20 04:00:03;;;;;;;39.90;26.90;;;5.20;1.00;;;;;;5029833;28;20081;-72
2021/04/20 04:02:31;;;;;;;43.08;25.73;;;5.10;1.00;;;;;;5016374;28;20125;-72
2021/04/20 04:04:58;;;;;;;36.70;25.98;;;5.00;1.00;;;;;;5013517;28;20053;-73
2021/04/20 04:07:26;;;;;;;38.13;26.95;;;4.90;1.00;;;;;;5005453;28;20437;-72
2021/04/20 04:09:53;;;;;;;38.70;26.58;;;4.80;1.00;;;;;;4993676;28;20030;-72
2021/04/20 04:12:22;;;;;;;41.88;27.92;;;4.80;1.00;;;;;;5013066;28;20076;-74
2021/04/20 04:14:48;;;;;;;35.30;25.77;;;4.80;1.00;;;;;;4994220;28;20030;-74
2021/04/20 04:17:16;;;;;;;42.30;27.42;;;4.80;1.00;;;;;;5002895;28;20025;-71
2021/04/20 04:19:44;;;;;;;40.65;25.77;;;4.70;1.00;;;;;;5013411;28;20030;-73
2021/04/20 04:22:32;;;;;;;41.58;27.73;;;4.80;1.00;;;;;;5007304;28;20023;-72
2021/04/20 04:25:00;;;;;;;40.38;27.95;;;4.80;1.00;;;;;;4992695;28;20049;-72
2021/04/20 04:27:28;;;;;;;43.10;28.92;;;4.80;1.00;;;;;;5009608;28;20041;-72
2021/04/20 04:29:59;;;;;;;35.58;27.88;;;4.80;1.00;;;;;;5005289;28;20037;-72
2021/04/20 04:32:26;;;;;;;37.60;26.48;;;4.80;1.00;;;;;;5005210;28;20073;-73
2021/04/20 04:34:53;;;;;;;42.75;26.25;;;5.00;1.00;;;;;;5007516;28;20026;-72
2021/04/20 04:37:19;;;;;;;38.65;25.02;;;5.10;1.00;;;;;;5001808;28;20019;-72
2021/04/20 04:39:45;;;;;;;44.55;26.27;;;5.20;1.00;;;;;;5012613;28;20028;-72
2021/04/20 04:42:12;;;;;;;43.28;29.15;;;5.30;1.00;;;;;;5014898;28;20032;-72
2021/04/20 04:44:38;;;;;;;49.92;30.40;;;5.20;1.00;;;;;;5004051;28;20061;-73
2021/04/20 04:47:06;;;;;;;46.92;32.13;;;5.10;1.00;;;;;;5000347;28;20109;-73
2021/04/20 04:49:32;;;;;;;44.40;30.20;;;5.10;1.00;;;;;;5001135;28;20041;-71
2021/04/20 04:51:59;;;;;;;44.80;29.48;;;5.00;1.00;;;;;;5012573;28;20036;-73
2021/04/20 04:54:26;;;;;;;44.97;29.02;;;5.10;1.00;;;;;;5014987;28;20026;-72
2021/04/20 04:56:53;;;;;;;42.47;29.52;;;5.10;1.00;;;;;;5024006;28;20450;-72
2021/04/20 04:59:22;;;;;;;46.13;28.13;;;5.20;1.00;;;;;;5021773;28;20412;-73
2021/04/20 05:01:48;;;;;;;46.65;29.67;;;5.30;1.00;;;;;;5007856;28;20560;-72
2021/04/20 05:04:15;;;;;;;48.58;31.45;;;5.30;1.00;;;;;;5018936;28;20033;-72
2021/04/20 05:06:45;;;;;;;50.13;30.77;;;5.20;1.00;;;;;;5022724;28;20034;-71
2021/04/20 05:09:12;;;;;;;46.70;31.17;;;5.10;1.00;;;;;;5022769;28;20030;-71
2021/04/20 05:11:40;;;;;;;51.58;31.17;;;5.10;1.00;;;;;;5023865;28;20026;-71
2021/04/20 05:14:07;;;;;;;43.95;30.98;;;5.20;1.00;;;;;;5031991;28;20021;-74
2021/04/20 05:16:33;;;;;;;47.97;32.05;;;5.30;1.00;;;;;;5044740;28;20094;-70
2021/04/20 05:19:01;;;;;;;50.90;30.83;;;5.30;1.00;;;;;;5036134;28;20030;-72
2021/04/20 05:21:27;;;;;;;55.53;33.97;;;5.20;1.00;;;;;;5034662;28;20034;-72
2021/04/20 05:23:53;;;;;;;51.45;32.20;;;5.20;1.00;;;;;;5012093;28;20115;-73
2021/04/20 05:26:19;;;;;;;51.30;31.90;;;5.30;1.00;;;;;;5000360;28;20090;-72
2021/04/20 05:28:44;;;;;;;45.90;29.38;;;5.50;1.00;;;;;;4996756;28;20030;-72
2021/04/20 05:31:10;;;;;;;38.53;24.70;;;5.70;1.00;;;;;;5006068;28;20034;-72
2021/04/20 05:33:35;;;;;;;40.70;25.10;;;5.80;1.00;;;;;;5008119;28;20022;-73
2021/04/20 05:36:08;;;;;;;35.13;25.73;;;5.80;1.00;;;;;;5008528;28;20030;-73
2021/04/20 05:38:34;;;;;;;35.20;22.80;;;5.70;1.00;;;;;;5006303;28;20033;-72
2021/04/20 05:41:01;;;;;;;28.08;21.67;;;5.80;1.00;;;;;;5008826;28;20354;-73
2021/04/20 05:43:28;;;;;;;32.78;23.83;;;5.90;1.00;;;;;;5011394;28;20523;-73
2021/04/20 05:45:53;;;;;;;36.38;22.63;;;6.00;1.00;;;;;;5008640;28;20469;-72
2021/04/20 05:48:19;;;;;;;36.75;22.63;;;6.00;1.00;;;;;;5025592;28;20055;-74
2021/04/20 05:50:50;;;;;;;28.83;23.42;;;6.00;1.00;;;;;;5034833;28;20063;-72
2021/04/20 05:53:16;;;;;;;31.42;22.95;;;6.10;1.00;;;;;;5025010;28;20386;-73
2021/04/20 05:55:41;;;;;;;26.73;21.35;;;6.40;1.00;;;;;;5005431;28;20046;-73
2021/04/20 05:58:07;;;;;;;27.10;21.77;;;7.00;1.00;;;;;;5010652;28;20524;-73
2021/04/20 06:00:33;;;;;;;27.45;20.38;;;6.90;1.00;;;;;;5015374;28;20018;-72
2021/04/20 06:02:59;;;;;;;26.98;22.08;;;6.90;1.00;;;;;;5015035;28;20401;-72
2021/04/20 06:05:27;;;;;;;25.73;20.60;;;7.20;1.00;;;;;;5015095;28;20034;-72
2021/04/20 06:07:55;;;;;;;26.40;21.38;;;7.50;1.00;;;;;;5006259;28;20026;-73
2021/04/20 06:10:21;;;;;;;25.00;20.60;;;7.30;1.00;;;;;;5013048;28;20038;-72
2021/04/20 06:12:48;;;;;;;28.75;20.13;;;7.50;99.90;;;;;;5016822;28;20511;-73
2021/04/20 06:15:19;;;;;;;27.45;19.23;;;7.70;1.00;;;;;;5018399;28;20050;-72
2021/04/20 06:17:46;;;;;;;21.90;19.25;;;7.60;99.90;;;;;;5007658;28;20027;-72
2021/04/20 06:20:13;;;;;;;22.52;18.73;;;7.30;99.90;;;;;;4998167;28;20086;-73
2021/04/20 06:22:46;;;;;;;19.95;17.83;;;7.00;1.00;;;;;;5022703;28;20064;-71
2021/04/20 06:25:14;;;;;;;22.33;18.92;;;7.00;1.00;;;;;;5027285;28;20068;-73
2021/04/20 06:27:40;;;;;;;23.92;19.58;;;6.70;1.00;;;;;;5014794;28;20022;-72
2021/04/20 06:30:08;;;;;;;21.65;18.77;;;6.60;1.00;;;;;;5000349;28;20053;-71
2021/04/20 06:32:42;;;;;;;23.92;19.60;;;6.70;1.00;;;;;;4999527;28;20092;-72
2021/04/20 06:35:13;;;;;;;23.33;18.77;;;7.00;1.00;;;;;;5009635;28;20072;-72
2021/04/20 06:37:42;;;;;;;21.13;18.85;;;7.20;1.00;;;;;;4998808;28;20505;-73
2021/04/20 06:40:11;;;;;;;21.00;18.85;;;7.50;1.00;;;;;;5012152;28;20113;-74
2021/04/20 06:42:53;;;;;;;22.80;19.00;;;7.50;99.90;;;;;;5006906;28;20036;-74
2021/04/20 06:45:24;;;;;;;22.42;19.08;;;8.00;99.90;;;;;;5015221;28;20030;-73
2021/04/20 06:47:56;;;;;;;22.60;19.55;;;8.10;99.90;;;;;;5008606;28;20033;-73
2021/04/20 06:50:23;;;;;;;22.58;18.15;;;8.00;99.90;;;;;;5016692;28;20090;-73
2021/04/20 06:52:57;;;;;;;23.58;20.98;;;8.30;99.90;;;;;;5024856;28;20018;-74
2021/04/20 06:55:33;;;;;;;29.67;21.17;;;8.60;99.90;;;;;;5020941;28;20109;-74
2021/04/20 06:58:13;;;;;;;27.67;21.38;;;8.50;99.90;;;;;;5006945;28;20089;-73
2021/04/20 07:00:46;;;;;;;26.10;20.87;;;8.60;99.90;;;;;;4994894;28;20033;-73
2021/04/20 07:03:25;;;;;;;24.65;19.67;;;8.70;99.90;;;;;;5009327;28;20022;-73
2021/04/20 07:06:16;;;;;;;25.15;21.20;;;8.50;99.90;;;;;;5010372;28;20018;-74
2021/04/20 07:09:02;;;;;;;22.38;19.70;;;8.60;99.90;;;;;;5010780;28;20034;-75
2021/04/20 07:11:33;;;;;;;26.40;21.05;;;8.30;99.90;;;;;;5013697;28;20068;-73
2021/04/20 07:14:02;;;;;;;27.15;20.77;;;8.40;99.90;;;;;;5011481;28;20053;-74
2021/04/20 07:16:28;;;;;;;27.15;22.45;;;8.50;99.90;;;;;;5004620;28;20030;-73
2021/04/20 07:18:59;;;;;;;27.45;21.75;;;8.60;99.90;;;;;;5007143;28;20033;-74
2021/04/20 07:22:09;;;;;;;26.63;20.23;;;8.40;99.90;;;;;;5029400;28;20026;-74
2021/04/20 07:24:56;;;;;;;31.95;22.45;;;9.00;99.90;;;;;;5015305;28;20417;-74
2021/04/20 07:27:49;;;;;;;26.42;20.85;;;9.20;99.90;;;;;;5014307;28;20036;-74
2021/04/20 07:30:43;;;;;;;24.02;21.27;;;9.40;99.90;;;;;;5005939;28;20030;-73
2021/04/20 07:33:24;;;;;;;22.08;19.48;;;9.30;99.90;;;;;;5013467;28;20121;-73
2021/04/20 07:36:13;;;;;;;30.50;21.15;;;9.60;99.90;;;;;;5013203;28;20037;-73
2021/04/20 07:38:57;;;;;;;24.40;21.02;;;9.70;99.90;;;;;;5011814;28;20045;-73
2021/04/20 07:41:37;;;;;;;27.25;21.50;;;9.80;99.90;;;;;;5000117;28;20054;-73
2021/04/20 07:44:50;;;;;;;25.90;21.77;;;9.90;99.90;;;;;;5007364;28;20489;-75
2021/04/20 07:47:18;;;;;;;25.58;22.05;;;9.90;99.90;;;;;;5016711;28;20280;-72
2021/04/20 07:50:05;;;;;;;27.83;22.85;;;9.90;99.90;;;;;;5004713;28;20481;-74
2021/04/20 07:53:03;;;;;;;31.17;21.77;;;10.00;99.90;;;;;;5007411;28;20033;-74
2021/04/20 07:55:58;;;;;;;29.23;22.02;;;9.90;99.90;;;;;;5014501;28;20060;-74
2021/04/20 07:58:27;;;;;;;25.23;21.13;;;9.70;99.90;;;;;;5004077;28;20030;-74
2021/04/20 08:01:26;;;;;;;24.63;21.42;;;10.00;99.90;;;;;;5025327;28;20026;-74
2021/04/20 08:03:59;;;;;;;27.10;21.05;;;10.10;99.90;;;;;;5003985;28;20052;-73
2021/04/20 08:06:28;;;;;;;25.60;20.48;;;9.90;99.90;;;;;;5015644;28;20652;-73
2021/04/20 08:09:13;;;;;;;28.65;21.27;;;9.70;99.90;;;;;;5011997;28;20464;-75
2021/04/20 08:11:46;;;;;;;28.38;21.52;;;10.00;99.90;;;;;;5019214;28;20049;-77
2021/04/20 08:14:26;;;;;;;27.55;22.85;;;10.20;99.90;;;;;;5027437;28;20018;-78
2021/04/20 08:17:07;;;;;;;24.88;20.42;;;10.50;99.90;;;;;;5023448;28;20014;-77
2021/04/20 08:19:37;;;;;;;29.40;19.63;;;10.80;99.90;;;;;;5026782;28;20041;-77
2021/04/20 08:22:09;;;;;;;28.10;20.25;;;11.30;99.90;;;;;;5023813;28;20030;-76
2021/04/20 08:25:01;;;;;;;27.52;22.15;;;11.20;99.90;;;;;;5028137;28;20084;-79
2021/04/20 08:27:50;;;;;;;25.25;21.00;;;11.30;99.90;;;;;;5014536;28;20531;-77
2021/04/20 08:30:31;;;;;;;25.70;22.75;;;11.50;99.90;;;;;;5007900;28;20090;-78
2021/04/20 08:32:57;;;;;;;26.13;23.08;;;11.40;99.90;;;;;;5019932;28;20033;-77
2021/04/20 08:35:28;;;;;;;29.48;22.92;;;11.60;99.90;;;;;;5019891;28;20025;-77
2021/04/20 08:38:42;;;;;;;28.50;22.45;;;11.70;99.90;;;;;;5028335;28;20053;-79
2021/04/20 08:41:28;;;;;;;31.92;22.90;;;11.70;99.90;;;;;;5011859;28;20026;-78
2021/04/20 08:44:21;;;;;;;27.38;21.35;;;11.90;99.90;;;;;;5015046;28;20567;-78
2021/04/20 08:46:55;;;;;;;25.80;20.98;;;11.90;99.90;;;;;;5012115;28;20475;-76
2021/04/20 08:49:32;;;;;;;26.27;21.33;;;11.70;99.90;;;;;;5017932;28;20481;-75
2021/04/20 08:52:06;;;;;;;27.65;22.35;;;11.70;99.90;;;;;;5009926;28;20054;-75
2021/04/20 08:54:57;;;;;;;30.30;23.05;;;12.10;99.90;;;;;;5017384;28;20022;-75
2021/04/20 08:57:32;;;;;;;33.25;21.27;;;12.30;99.90;;;;;;5008276;28;20018;-75
2021/04/20 09:00:13;;;;;;;27.23;22.20;;;12.50;76.80;;;;;;5009047;28;20105;-74
2021/04/20 09:02:57;;;;;;;28.33;20.77;;;12.80;38.30;;;;;;5017628;28;20029;-75
2021/04/20 09:05:31;;;;;;;28.65;19.75;;;12.70;13.80;;;;;;5018381;28;20032;-75
2021/04/20 09:08:06;;;;;;;20.42;16.40;;;12.80;1.00;;;;;;5007612;28;20029;-76
2021/04/20 09:10:41;;;;;;;20.33;16.08;;;12.90;99.90;;;;;;5007831;28;20034;-75
2021/04/20 09:13:12;;;;;;;17.52;13.63;;;12.70;1.00;;;;;;5026381;28;20526;-75
2021/04/20 09:15:44;;;;;;;18.00;16.08;;;12.80;99.90;;;;;;5018940;28;20026;-75
2021/04/20 09:18:15;;;;;;;22.10;18.80;;;12.70;1.00;;;;;;5018846;28;20080;-76
2021/04/20 09:20:53;;;;;;;;;;;13.10;1.00;;;;;;5015616;28;20028;-75
2021/04/20 09:23:38;;;;;;;23.00;17.08;;;13.30;99.90;;;;;;5016494;28;20074;-75
2021/04/20 09:26:19;;;;;;;24.83;18.85;;;13.40;99.90;;;;;;5020006;28;20037;-74
2021/04/20 09:28:59;;;;;;;21.42;17.83;;;13.30;99.90;;;;;;5020359;28;20025;-76
2021/04/20 09:31:33;;;;;;;23.40;17.53;;;13.10;99.90;;;;;;5013541;28;20052;-74
2021/04/20 09:34:00;;;;;;;22.08;17.05;;;12.60;99.90;;;;;;5013804;28;20284;-76
2021/04/20 09:36:27;;;;;;;19.65;15.18;;;13.00;99.90;;;;;;5008921;28;20070;-76
2021/04/20 09:38:55;;;;;;;19.58;16.92;;;13.40;99.90;;;;;;5012900;28;20121;-75
2021/04/20 09:41:29;;;;;;;18.17;15.52;;;13.80;99.90;;;;;;5014788;28;20026;-75
2021/04/20 09:44:16;;;;;;;18.15;15.88;;;13.90;1.00;;;;;;5037520;28;20014;-72
2021/04/20 09:46:53;;;;;;;20.30;16.90;;;13.60;11.90;;;;;;5025898;28;20026;-74
2021/04/20 09:49:55;;;;;;;15.98;13.80;;;14.10;99.90;;;;;;5026901;28;20014;-74
2021/04/20 09:52:22;;;;;;;13.10;11.82;;;14.50;1.00;;;;;;5022483;28;20068;-74
2021/04/20 09:54:59;;;;;;;18.20;15.02;;;14.20;99.90;;;;;;5010110;28;20022;-75
2021/04/20 09:57:28;;;;;;;19.02;15.65;;;14.70;6.30;;;;;;5027009;28;20061;-74
2021/04/20 10:00:00;;;;;;;19.35;17.35;;;14.80;99.90;;;;;;5030079;28;20011;-73
2021/04/20 10:02:39;;;;;;;17.80;15.82;;;14.90;99.90;;;;;;5031055;28;20036;-74
2021/04/20 10:05:40;;;;;;;13.95;12.48;;;14.90;99.90;;;;;;5041443;28;20084;-74
2021/04/20 10:08:38;;;;;;;18.95;16.10;;;15.00;99.90;;;;;;5036763;28;20037;-75
2021/04/20 10:11:13;;;;;;;18.52;15.27;;;15.00;99.90;;;;;;5013791;28;20069;-76
2021/04/20 10:14:05;;;;;;;17.80;15.15;;;15.00;99.90;;;;;;5010480;28;20046;-76
2021/04/20 10:17:15;;;;;;;14.75;13.25;;;14.90;1.00;;;;;;5011851;28;20069;-74
2021/04/20 10:19:53;;;;;;;16.02;13.63;;;14.50;99.90;;;;;;5028405;28;20038;-75
2021/04/20 10:22:51;;;;;;;15.27;13.68;;;15.00;99.90;;;;;;5016680;28;20018;-75
2021/04/20 10:25:33;;;;;;;14.50;13.10;;;15.40;99.90;;;;;;5011818;28;20050;-73
2021/04/20 10:28:21;;;;;;;14.15;11.85;;;15.00;1.00;;;;;;5010447;28;20047;-75
2021/04/20 10:30:52;;;;;;;13.60;11.65;;;15.00;99.90;;;;;;5005116;28;20038;-75
2021/04/20 10:33:23;;;;;;;15.63;13.98;;;14.70;1.00;;;;;;5017407;28;20029;-75
2021/04/20 10:35:58;;;;;;;16.98;15.18;;;14.70;1.00;;;;;;5009170;28;20030;-76
2021/04/20 10:38:32;;;;;;;15.93;14.27;;;15.10;99.90;;;;;;5008621;28;20029;-75
2021/04/20 10:40:59;;;;;;;17.67;14.95;;;15.10;99.90;;;;;;5015000;28;20033;-76
2021/04/20 10:43:28;;;;;;;17.33;15.63;;;14.90;1.00;;;;;;5014282;28;20026;-72
2021/04/20 10:45:58;;;;;;;14.95;13.43;;;14.70;13.10;;;;;;5013955;28;20101;-71
2021/04/20 10:48:26;;;;;;;15.88;12.88;;;14.90;1.00;;;;;;5012911;28;20026;-71
2021/04/20 10:50:54;;;;;;;19.05;16.50;;;14.60;99.90;;;;;;5004432;28;20022;-72
2021/04/20 10:53:23;;;;;;;17.75;14.85;;;14.60;1.00;;;;;;5010306;28;20018;-72
2021/04/20 10:56:12;;;;;;;17.83;16.00;;;15.00;99.90;;;;;;5003461;28;20164;-70
2021/04/20 10:58:43;;;;;;;17.65;14.15;;;15.20;1.00;;;;;;5013189;28;20060;-72
2021/04/20 11:01:14;;;;;;;13.98;12.63;;;15.40;99.90;;;;;;5013984;28;20044;-72
2021/04/20 11:03:40;;;;;;;13.30;11.32;;;15.60;1.00;;;;;;5004876;28;20034;-72
2021/04/20 11:06:07;;;;;;;12.63;10.98;;;15.70;1.00;;;;;;5015012;28;20456;-72
2021/04/20 11:08:46;;;;;;;14.15;12.25;;;15.80;99.90;;;;;;4995766;28;20036;-74
2021/04/20 11:11:22;;;;;;;15.63;14.02;;;15.90;99.90;;;;;;5009488;28;20526;-71
2021/04/20 11:13:49;;;;;;;14.93;13.43;;;16.40;1.00;;;;;;5009696;28;20030;-71
2021/04/20 11:16:48;;;;;;;14.68;13.27;;;16.60;99.90;;;;;;5006414;28;20114;-73
2021/04/20 11:19:19;;;;;;;11.45;9.77;;;16.70;99.90;;;;;;5012534;28;20022;-73
2021/04/20 11:21:46;;;;;;;11.10;10.10;;;16.80;99.90;;;;;;4998830;28;20026;-72
2021/04/20 11:24:19;;;;;;;11.65;10.55;;;16.20;99.90;;;;;;5015788;28;20056;-73
2021/04/20 11:26:56;;;;;;;11.32;10.13;;;16.40;99.90;;;;;;5015187;28;20117;-75
2021/04/20 11:29:28;;;;;;;11.25;9.90;;;16.10;99.90;;;;;;5015082;28;20512;-72
2021/04/20 11:31:55;;;;;;;11.82;10.73;;;16.20;99.90;;;;;;5014472;28;20101;-71
2021/04/20 11:34:23;;;;;;;12.00;9.88;;;16.30;1.00;;;;;;5013692;28;20029;-71
2021/04/20 11:36:53;;;;;;;12.75;11.07;;;15.90;99.90;;;;;;5001662;28;20077;-72
2021/04/20 11:39:24;;;;;;;12.60;10.60;;;15.60;1.00;;;;;;5009556;28;20105;-73
2021/04/20 11:42:04;;;;;;;12.38;11.18;;;15.90;1.00;;;;;;5004479;28;20037;-72
2021/04/20 11:45:03;;;;;;;11.55;10.27;;;16.00;1.00;;;;;;5009406;28;20116;-72
2021/04/20 11:47:29;;;;;;;11.95;10.63;;;16.10;1.00;;;;;;5030510;28;20547;-71
2021/04/20 11:50:09;;;;;;;14.10;12.15;;;16.20;99.90;;;;;;5015721;28;20061;-72
2021/04/20 11:52:35;;;;;;;14.02;11.13;;;15.80;1.00;;;;;;5005818;28;20104;-71
2021/04/20 11:55:07;;;;;;;12.40;10.52;;;15.60;1.00;;;;;;5013748;28;20017;-73
2021/04/20 11:57:35;;;;;;;12.55;11.25;;;15.70;1.00;;;;;;5006828;28;20133;-73
2021/04/20 12:00:04;;;;;;;12.15;10.68;;;15.80;1.00;;;;;;5013276;28;20469;-73
2021/04/20 12:02:30;;;;;;;12.43;11.15;;;15.70;1.00;;;;;;5012540;28;20044;-71
2021/04/20 12:05:07;;;;;;;14.68;11.30;;;15.60;86.10;;;;;;5005707;28;20022;-72
2021/04/20 12:07:34;;;;;;;11.60;10.30;;;15.70;1.00;;;;;;5014272;28;20029;-71
2021/04/20 12:10:01;;;;;;;11.25;10.15;;;15.90;1.00;;;;;;5033405;28;20117;-72
2021/04/20 12:12:33;;;;;;;11.07;9.98;;;16.00;1.00;;;;;;5012604;28;20037;-72
2021/04/20 12:15:01;;;;;;;11.32;10.05;;;16.30;1.00;;;;;;5007990;28;20093;-71
2021/04/20 12:17:32;;;;;;;11.85;10.60;;;16.40;1.00;;;;;;4995032;28;20116;-72
2021/04/20 12:20:03;;;;;;;12.02;9.68;;;16.70;99.90;;;;;;5033004;28;20021;-72
2021/04/20 12:22:29;;;;;;;12.07;9.10;;;16.70;99.90;;;;;;5025631;28;20129;-72
2021/04/20 12:24:56;;;;;;;10.10;9.10;;;16.50;99.90;;;;;;5016499;28;20033;-72
2021/04/20 12:27:24;;;;;;;10.77;9.63;;;16.30;99.90;;;;;;5005075;28;20109;-72
2021/04/20 12:29:50;;;;;;;13.57;10.52;;;16.30;99.90;;;;;;5026453;28;20026;-73
2021/04/20 12:32:25;;;;;;;10.90;9.90;;;16.50;99.90;;;;;;5019932;28;20041;-73
2021/04/20 12:34:59;;;;;;;11.20;9.43;;;16.80;99.90;;;;;;5013917;28;20022;-72
2021/04/20 12:37:27;;;;;;;8.60;7.70;;;16.70;99.90;;;;;;5018559;28;20101;-72
2021/04/20 12:40:15;;;;;;;9.77;8.77;;;16.60;1.00;;;;;;5022551;28;20045;-73
2021/04/20 12:42:52;;;;;;;9.32;8.32;;;16.80;53.50;;;;;;5027241;28;20079;-72
2021/04/20 12:45:26;;;;;;;8.20;7.40;;;17.00;1.00;;;;;;5024561;28;20564;-73
2021/04/20 12:47:57;;;;;;;9.10;8.02;;;17.10;1.00;;;;;;5011313;28;20056;-73
2021/04/20 12:50:29;;;;;;;9.07;8.18;;;17.20;1.00;;;;;;5003591;28;20025;-74
2021/04/20 12:53:00;;;;;;;9.20;7.88;;;17.50;1.00;;;;;;5019145;28;20037;-72
2021/04/20 12:55:27;;;;;;;8.48;7.20;;;17.70;99.90;;;;;;5011085;28;20057;-72
2021/04/20 12:57:55;;;;;;;8.15;7.07;;;17.70;99.90;;;;;;5020301;28;20101;-73
2021/04/20 13:00:23;;;;;;;6.97;6.38;;;17.60;99.90;;;;;;5017724;28;20022;-73
2021/04/20 13:02:51;;;;;;;9.55;7.68;;;18.00;99.90;;;;;;5015585;28;20030;-73
2021/04/20 13:05:35;;;;;;;8.57;7.75;;;17.80;99.90;;;;;;5007572;28;20644;-74